createdAt,value
2019-04-11T00:00:57.645Z,91.00
2019-04-11T00:01:58.656Z,91.10
2019-04-11T00:03:00.831Z,91.10
2019-04-11T00:04:01.908Z,90.62
2019-04-11T00:05:02.728Z,90.62
2019-04-11T00:06:04.108Z,90.34
2019-04-11T00:07:05.879Z,90.15
2019-04-11T00:08:07.905Z,90.34
2019-04-11T00:09:08.235Z,90.44
2019-04-11T00:10:10.228Z,90.25
2019-04-11T00:11:11.538Z,90.34
2019-04-11T00:12:12.441Z,90.25
2019-04-11T00:13:19.819Z,90.34
2019-04-11T00:14:15.874Z,90.53
2019-04-11T00:15:16.295Z,90.25
2019-04-11T00:16:17.677Z,90.06
2019-04-11T00:17:19.586Z,89.77
2019-04-11T00:18:20.775Z,90.15
2019-04-11T00:19:21.761Z,90.15
2019-04-11T00:20:24.237Z,90.06
2019-04-11T00:21:24.612Z,89.96
2019-04-11T00:22:25.832Z,90.06
2019-04-11T00:23:27.212Z,89.20
2019-04-11T00:24:29.208Z,90.06
2019-04-11T00:25:29.932Z,90.06
2019-04-11T00:26:31.310Z,90.15
2019-04-11T00:27:32.961Z,89.77
2019-04-11T00:28:34.099Z,89.77
2019-04-11T00:29:36.473Z,90.06
2019-04-11T00:30:36.712Z,90.06
2019-04-11T00:31:39.033Z,90.06
2019-04-11T00:32:39.438Z,90.53
2019-04-11T00:33:40.820Z,90.25
2019-04-11T00:34:42.723Z,90.15
2019-04-11T00:35:43.935Z,90.72
2019-04-11T00:36:44.884Z,90.34
2019-04-11T00:37:47.401Z,90.06
2019-04-11T00:38:47.840Z,90.81
2019-04-11T00:39:49.898Z,90.62
2019-04-11T00:40:51.239Z,90.62
2019-04-11T00:41:52.325Z,90.53
2019-04-11T00:42:52.985Z,90.81
2019-04-11T00:43:54.618Z,91.19
2019-04-11T00:44:57.026Z,90.91
2019-04-11T00:45:58.100Z,91.19
2019-04-11T00:46:58.514Z,91.10
2019-04-11T00:47:59.743Z,91.19
2019-04-11T00:49:01.886Z,91.19
2019-04-11T00:50:04.062Z,91.10
2019-04-11T00:51:03.811Z,91.10
2019-04-11T00:52:05.196Z,91.00
2019-04-11T00:53:06.598Z,91.10
2019-04-11T00:54:08.708Z,91.19
2019-04-11T00:55:09.301Z,91.48
2019-04-11T00:56:10.889Z,91.19
2019-04-11T00:57:12.709Z,91.67
2019-04-11T00:58:13.747Z,91.67
2019-04-11T00:59:14.700Z,91.38
2019-04-11T01:00:16.081Z,91.57
2019-04-11T01:01:17.697Z,91.67
2019-04-11T01:02:18.827Z,91.48
2019-04-11T01:03:20.237Z,91.38
2019-04-11T01:04:21.590Z,91.29
2019-04-11T01:05:23.538Z,91.57
2019-04-11T01:06:24.325Z,91.86
2019-04-11T01:07:26.791Z,92.24
2019-04-11T01:08:27.377Z,92.14
2019-04-11T01:09:28.460Z,92.33
2019-04-11T01:10:29.977Z,92.14
2019-04-11T01:11:32.013Z,92.38
2019-04-11T01:12:32.421Z,92.99
2019-04-11T01:13:42.565Z,92.76
2019-04-11T01:14:37.105Z,92.85
2019-04-11T01:15:36.505Z,93.32
2019-04-11T01:16:38.846Z,93.61
2019-04-11T01:17:39.281Z,93.89
2019-04-11T01:18:40.614Z,93.80
2019-04-11T01:19:42.632Z,93.80
2019-04-11T01:20:43.866Z,93.99
2019-04-11T01:21:44.683Z,93.89
2019-04-11T01:22:46.601Z,93.70
2019-04-11T01:23:47.401Z,93.70
2019-04-11T01:24:48.778Z,93.99
2019-04-11T01:25:50.174Z,94.37
2019-04-11T01:26:51.791Z,94.65
2019-04-11T01:27:52.894Z,95.03
2019-04-11T01:28:55.328Z,94.84
2019-04-11T01:29:55.703Z,94.93
2019-04-11T01:30:57.525Z,94.65
2019-04-11T01:31:58.304Z,94.84
2019-04-11T01:32:59.686Z,95.12
2019-04-11T01:34:02.274Z,94.93
2019-04-11T01:35:02.405Z,95.40
2019-04-11T01:36:04.770Z,95.88
2019-04-11T01:37:05.135Z,95.88
2019-04-11T01:38:06.502Z,96.07
2019-04-11T01:39:08.491Z,96.16
2019-04-11T01:40:09.859Z,95.88
2019-04-11T01:41:10.572Z,95.97
2019-04-11T01:42:13.139Z,96.35
2019-04-11T01:43:13.557Z,96.45
2019-04-11T01:44:14.648Z,96.07
2019-04-11T01:45:16.957Z,96.07
2019-04-11T01:46:18.051Z,96.07
2019-04-11T01:47:18.710Z,96.07
2019-04-11T01:48:20.095Z,96.16
2019-04-11T01:49:21.903Z,97.02
2019-04-11T01:50:23.051Z,97.11
2019-04-11T01:51:25.356Z,96.73
2019-04-11T01:52:26.527Z,96.64
2019-04-11T01:53:26.888Z,96.54
2019-04-11T01:54:28.238Z,96.83
2019-04-11T01:55:29.616Z,96.92
2019-04-11T01:56:31.455Z,97.11
2019-04-11T01:57:32.335Z,97.30
2019-04-11T01:58:33.722Z,97.30
2019-04-11T01:59:35.438Z,97.68
2019-04-11T02:00:36.518Z,97.96
2019-04-11T02:01:38.977Z,98.06
2019-04-11T02:02:39.151Z,98.06
2019-04-11T02:03:41.416Z,98.06
2019-04-11T02:04:41.868Z,97.91
2019-04-11T02:05:43.915Z,98.20
2019-04-11T02:06:45.833Z,98.10
2019-04-11T02:07:46.962Z,97.96
2019-04-11T02:08:47.981Z,98.10
2019-04-11T02:09:50.413Z,98.01
2019-04-11T02:10:50.861Z,98.48
2019-04-11T02:11:52.088Z,98.39
2019-04-11T02:12:53.428Z,98.58
2019-04-11T02:14:05.085Z,98.77
2019-04-11T02:14:56.152Z,98.86
2019-04-11T02:15:58.394Z,98.67
2019-04-11T02:16:59.292Z,98.58
2019-04-11T02:18:01.243Z,98.29
2019-04-11T02:19:01.647Z,98.67
2019-04-11T02:20:02.907Z,99.33
2019-04-11T02:21:05.234Z,99.33
2019-04-11T02:22:06.489Z,99.15
2019-04-11T02:23:07.006Z,98.96
2019-04-11T02:24:08.400Z,98.86
2019-04-11T02:25:09.779Z,98.86
2019-04-11T02:26:11.481Z,98.77
2019-04-11T02:27:12.619Z,98.67
2019-04-11T02:28:14.715Z,99.24
2019-04-11T02:29:15.202Z,99.15
2019-04-11T02:30:18.329Z,98.96
2019-04-11T02:31:19.563Z,99.52
2019-04-11T02:32:20.838Z,99.15
2019-04-11T02:33:21.758Z,98.96
2019-04-11T02:34:23.379Z,99.62
2019-04-11T02:35:24.247Z,99.71
2019-04-11T02:36:25.024Z,99.80
2019-04-11T02:37:26.325Z,99.62
2019-04-11T02:38:28.363Z,99.90
2019-04-11T02:39:30.741Z,99.80
2019-04-11T02:40:30.634Z,99.90
2019-04-11T02:41:32.024Z,99.71
2019-04-11T02:42:32.981Z,99.71
2019-04-11T02:43:34.213Z,99.52
2019-04-11T02:44:52.277Z,99.90
2019-04-11T02:45:49.168Z,99.99
2019-04-11T02:46:47.889Z,99.52
2019-04-11T02:47:41.111Z,99.52
2019-04-11T02:48:40.893Z,99.52
2019-04-11T02:49:43.461Z,99.62
2019-04-11T02:50:43.548Z,99.99
2019-04-11T02:51:44.964Z,99.33
2019-04-11T02:52:47.197Z,99.99
2019-04-11T02:53:47.459Z,99.99
2019-04-11T02:54:49.342Z,99.99
2019-04-11T02:55:51.849Z,99.99
2019-04-11T02:56:52.902Z,99.99
2019-04-11T02:57:54.173Z,99.99
2019-04-11T02:58:54.560Z,99.99
2019-04-11T02:59:56.043Z,99.99
2019-04-11T03:01:00.294Z,99.80
2019-04-11T03:01:58.275Z,99.99
2019-04-11T03:03:01.161Z,99.99
2019-04-11T03:04:01.901Z,99.99
2019-04-11T03:05:02.897Z,99.99
2019-04-11T03:06:04.456Z,99.90
2019-04-11T03:07:05.912Z,99.80
2019-04-11T03:08:10.617Z,99.99
2019-04-11T03:09:07.815Z,99.99
2019-04-11T03:10:09.905Z,99.99
2019-04-11T03:11:10.832Z,99.99
2019-04-11T03:12:13.259Z,99.99
2019-04-11T03:13:13.237Z,99.99
2019-04-11T03:14:16.282Z,99.99
2019-04-11T03:15:32.080Z,99.99
2019-04-11T03:16:28.133Z,99.99
2019-04-11T03:17:23.080Z,99.99
2019-04-11T03:18:42.448Z,99.99
2019-04-11T03:19:35.737Z,99.99
2019-04-11T03:20:31.709Z,99.99
2019-04-11T03:21:24.459Z,99.99
2019-04-11T03:22:26.557Z,99.99
2019-04-11T03:23:27.860Z,99.99
2019-04-11T03:24:29.498Z,99.99
2019-04-11T03:25:30.500Z,99.99
2019-04-11T03:26:31.074Z,99.99
2019-04-11T03:27:32.595Z,99.99
2019-04-11T03:28:34.013Z,99.99
2019-04-11T03:29:36.168Z,99.99
2019-04-11T03:30:54.063Z,99.99
2019-04-11T03:34:24.893Z,99.99
2019-04-11T03:37:24.061Z,99.99
2019-04-11T03:38:05.820Z,99.99
2019-04-11T03:39:11.358Z,99.99
2019-04-11T03:40:06.029Z,99.99
2019-04-11T03:41:12.526Z,99.99
2019-04-11T03:42:09.539Z,99.99
2019-04-11T03:43:06.347Z,99.99
2019-04-11T03:44:04.315Z,99.99
2019-04-11T03:45:15.304Z,99.99
2019-04-11T03:46:16.378Z,99.99
2019-04-11T03:47:10.126Z,99.99
2019-04-11T03:48:12.469Z,99.99
2019-04-11T03:49:15.869Z,99.99
2019-04-11T03:50:08.365Z,99.99
2019-04-11T03:51:04.771Z,99.99
2019-04-11T03:52:08.129Z,99.99
2019-04-11T03:53:09.379Z,99.99
2019-04-11T03:54:09.630Z,99.99
2019-04-11T03:55:11.086Z,99.99
2019-04-11T03:56:12.155Z,99.99
2019-04-11T03:57:13.384Z,99.99
2019-04-11T03:58:15.487Z,99.99
2019-04-11T03:59:16.604Z,99.99
2019-04-11T04:00:16.675Z,99.99
2019-04-11T04:01:18.405Z,99.99
2019-04-11T04:02:20.251Z,99.99
2019-04-11T04:03:22.295Z,99.99
2019-04-11T04:04:23.399Z,99.99
2019-04-11T04:05:23.818Z,99.99
2019-04-11T04:06:25.577Z,99.99
2019-04-11T04:07:27.661Z,99.99
2019-04-11T04:08:28.824Z,99.99
2019-04-11T04:09:29.358Z,99.99
2019-04-11T04:10:30.015Z,99.99
2019-04-11T04:11:32.608Z,99.99
2019-04-11T04:12:33.635Z,99.99
2019-04-11T04:13:34.539Z,99.99
2019-04-11T04:14:36.953Z,99.99
2019-04-11T04:15:51.613Z,99.99
2019-04-11T04:16:43.211Z,99.99
2019-04-11T04:17:41.162Z,99.99
2019-04-11T04:18:40.865Z,99.99
2019-04-11T04:19:43.698Z,99.99
2019-04-11T04:20:43.909Z,99.99
2019-04-11T04:21:44.945Z,99.99
2019-04-11T04:22:48.089Z,99.99
2019-04-11T04:23:49.466Z,99.99
2019-04-11T04:24:49.687Z,99.99
2019-04-11T04:25:51.509Z,99.99
2019-04-11T04:26:52.635Z,99.99
2019-04-11T04:27:54.571Z,99.99
2019-04-11T04:28:55.392Z,99.99
2019-04-11T04:29:57.741Z,99.99
2019-04-11T04:30:57.936Z,99.99
2019-04-11T04:31:59.546Z,99.99
2019-04-11T04:33:00.582Z,99.99
2019-04-11T04:34:01.961Z,99.99
2019-04-11T04:35:02.766Z,99.99
2019-04-11T04:36:06.603Z,99.99
2019-04-11T04:37:05.864Z,99.99
2019-04-11T04:38:07.422Z,99.99
2019-04-11T04:39:08.686Z,99.99
2019-04-11T04:40:24.109Z,99.99
2019-04-11T04:41:21.098Z,99.99
2019-04-11T04:42:23.479Z,99.99
2019-04-11T04:43:14.460Z,99.99
2019-04-11T04:44:14.664Z,99.99
2019-04-11T04:45:16.358Z,99.99
2019-04-11T04:46:30.807Z,99.99
2019-04-11T04:47:24.994Z,99.99
2019-04-11T04:48:23.076Z,99.99
2019-04-11T04:49:21.487Z,99.99
2019-04-11T04:50:24.340Z,99.99
2019-04-11T04:51:24.516Z,99.99
2019-04-11T04:52:27.232Z,99.99
2019-04-11T04:53:28.254Z,99.99
2019-04-11T04:54:28.374Z,99.99
2019-04-11T04:55:30.326Z,99.99
2019-04-11T04:56:32.254Z,99.99
2019-04-11T04:57:35.086Z,99.99
2019-04-11T04:58:33.937Z,99.99
2019-04-11T04:59:37.416Z,99.99
2019-04-11T05:00:37.493Z,99.99
2019-04-11T05:01:39.157Z,99.99
2019-04-11T05:02:39.744Z,99.99
2019-04-11T05:03:40.873Z,99.99
2019-04-11T05:04:43.447Z,99.99
2019-04-11T05:05:44.289Z,99.99
2019-04-11T05:06:46.769Z,99.99
2019-04-11T05:07:46.861Z,99.99
2019-04-11T05:08:47.291Z,99.99
2019-04-11T05:09:50.131Z,99.99
2019-04-11T05:10:51.344Z,99.99
2019-04-11T05:11:52.856Z,99.99
2019-04-11T05:12:52.545Z,99.99
2019-04-11T05:13:54.499Z,99.99
2019-04-11T05:14:56.023Z,99.99
2019-04-11T05:16:06.846Z,99.99
2019-04-11T05:16:58.102Z,99.99
2019-04-11T05:17:59.895Z,99.99
2019-04-11T05:19:00.882Z,99.99
2019-04-11T05:20:02.887Z,99.99
2019-04-11T05:21:03.399Z,99.99
2019-04-11T05:22:04.793Z,99.99
2019-04-11T05:23:06.368Z,99.99
2019-04-11T05:24:07.534Z,99.99
2019-04-11T05:25:08.923Z,99.99
2019-04-11T05:26:10.946Z,99.99
2019-04-11T05:27:12.560Z,99.99
2019-04-11T05:28:13.968Z,99.99
2019-04-11T05:29:15.211Z,99.99
2019-04-11T05:30:16.731Z,99.99
2019-04-11T05:31:17.055Z,99.99
2019-04-11T05:32:19.677Z,99.99
2019-04-11T05:33:19.869Z,99.99
2019-04-11T05:34:21.236Z,99.99
2019-04-11T05:35:22.788Z,99.99
2019-04-11T05:36:24.717Z,99.99
2019-04-11T05:37:25.335Z,99.99
2019-04-11T05:38:27.307Z,99.99
2019-04-11T05:39:28.066Z,99.99
2019-04-11T05:40:30.901Z,99.99
2019-04-11T05:41:31.356Z,99.99
2019-04-11T05:42:33.299Z,99.99
2019-04-11T05:43:37.371Z,99.99
2019-04-11T05:44:37.590Z,99.52
2019-04-11T05:45:36.304Z,99.81
2019-04-11T05:46:49.102Z,99.52
2019-04-11T05:47:39.296Z,98.39
2019-04-11T05:48:41.026Z,97.92
2019-04-11T05:49:42.449Z,97.92
2019-04-11T05:50:46.312Z,96.50
2019-04-11T05:51:47.434Z,95.74
2019-04-11T05:52:46.506Z,95.07
2019-04-11T05:53:49.885Z,94.13
2019-04-11T05:54:49.730Z,94.08
2019-04-11T05:55:50.994Z,93.51
2019-04-11T05:56:55.025Z,93.23
2019-04-11T05:57:54.395Z,92.57
2019-04-11T05:58:55.588Z,91.81
2019-04-11T05:59:56.543Z,91.71
2019-04-11T06:00:58.287Z,91.05
2019-04-11T06:02:01.660Z,90.53
2019-04-11T06:03:00.068Z,89.39
2019-04-11T06:04:01.992Z,88.54
2019-04-11T06:05:02.968Z,87.49
2019-04-11T06:06:04.787Z,87.02
2019-04-11T06:07:07.849Z,86.40
2019-04-11T06:08:06.885Z,85.45
2019-04-11T06:09:10.138Z,84.88
2019-04-11T06:10:11.374Z,82.70
2019-04-11T06:11:14.431Z,82.13
2019-04-11T06:12:13.579Z,81.18
2019-04-11T06:13:13.674Z,81.09
2019-04-11T06:14:15.218Z,80.75
2019-04-11T06:15:16.664Z,79.90
2019-04-11T06:16:18.802Z,79.80
2019-04-11T06:17:19.128Z,78.66
2019-04-11T06:18:27.079Z,77.71
2019-04-11T06:19:22.830Z,77.81
2019-04-11T06:20:25.111Z,77.05
2019-04-11T06:21:24.596Z,77.20
2019-04-11T06:22:25.989Z,78.05
2019-04-11T06:23:27.528Z,78.43
2019-04-11T06:24:28.932Z,78.81
2019-04-11T06:25:30.940Z,78.62
2019-04-11T06:26:32.407Z,79.10
2019-04-11T06:27:34.149Z,79.10
2019-04-11T06:28:34.337Z,79.00
2019-04-11T06:29:36.879Z,78.75
2019-04-11T06:30:37.070Z,78.85
2019-04-11T06:31:38.461Z,78.28
2019-04-11T06:32:40.286Z,77.90
2019-04-11T06:33:41.215Z,77.62
2019-04-11T06:34:43.776Z,78.19
2019-04-11T06:35:44.169Z,77.62
2019-04-11T06:36:46.572Z,77.37
2019-04-11T06:37:46.706Z,76.80
2019-04-11T06:38:49.294Z,75.67
2019-04-11T06:39:49.487Z,74.90
2019-04-11T06:40:51.123Z,73.67
2019-04-11T06:41:52.134Z,73.76
2019-04-11T06:42:53.859Z,73.86
2019-04-11T06:43:56.350Z,72.56
2019-04-11T06:44:56.841Z,72.75
2019-04-11T06:45:58.832Z,71.62
2019-04-11T06:47:01.128Z,70.29
2019-04-11T06:48:01.591Z,69.81
2019-04-11T06:49:02.979Z,69.37
2019-04-11T06:50:04.372Z,68.13
2019-04-11T06:51:06.010Z,68.23
2019-04-11T06:52:07.117Z,67.47
2019-04-11T06:53:08.940Z,66.80
2019-04-11T06:54:09.863Z,67.28
2019-04-11T06:55:11.253Z,66.24
2019-04-11T06:56:12.644Z,65.57
2019-04-11T06:57:14.045Z,65.57
2019-04-11T06:58:15.441Z,65.13
2019-04-11T06:59:16.819Z,64.37
2019-04-11T07:00:18.214Z,63.04
2019-04-11T07:01:20.233Z,62.88
2019-04-11T07:02:23.308Z,62.40
2019-04-11T07:03:25.479Z,61.64
2019-04-11T07:04:23.678Z,62.12
2019-04-11T07:05:25.072Z,61.52
2019-04-11T07:06:27.202Z,61.99
2019-04-11T07:07:28.976Z,62.62
2019-04-11T07:08:30.018Z,62.91
2019-04-11T07:09:30.968Z,64.14
2019-04-11T07:10:31.883Z,65.35
2019-04-11T07:11:34.128Z,66.20
2019-04-11T07:12:34.955Z,66.58
2019-04-11T07:13:37.068Z,67.53
2019-04-11T07:14:37.571Z,67.79
2019-04-11T07:15:39.780Z,68.48
2019-04-11T07:16:40.413Z,68.07
2019-04-11T07:17:41.405Z,68.73
2019-04-11T07:18:42.797Z,68.44
2019-04-11T07:19:44.488Z,68.73
2019-04-11T07:20:45.763Z,69.02
2019-04-11T07:21:46.881Z,69.78
2019-04-11T07:22:48.820Z,69.49
2019-04-11T07:23:49.627Z,69.87
2019-04-11T07:24:51.022Z,70.63
2019-04-11T07:25:52.413Z,71.77
2019-04-11T07:26:54.351Z,72.34
2019-04-11T07:27:55.159Z,72.81
2019-04-11T07:28:56.596Z,73.19
2019-04-11T07:29:58.493Z,73.19
2019-04-11T07:31:00.307Z,73.67
2019-04-11T07:32:00.895Z,74.05
2019-04-11T07:33:02.191Z,74.33
2019-04-11T07:34:03.358Z,75.24
2019-04-11T07:35:04.958Z,74.77
2019-04-11T07:36:06.086Z,75.53
2019-04-11T07:37:07.481Z,76.29
2019-04-11T07:38:09.780Z,76.39
2019-04-11T07:39:10.216Z,77.43
2019-04-11T07:40:12.990Z,77.52
2019-04-11T07:41:13.003Z,78.00
2019-04-11T07:42:15.728Z,78.00
2019-04-11T07:43:17.122Z,78.19
2019-04-11T07:44:17.579Z,77.62
2019-04-11T07:45:18.442Z,78.09
2019-04-11T07:46:19.893Z,78.19
2019-04-11T07:47:24.581Z,78.56
2019-04-11T07:48:22.543Z,78.38
2019-04-11T07:49:24.432Z,78.47
2019-04-11T07:50:26.135Z,78.56
2019-04-11T07:51:27.539Z,79.14
2019-04-11T07:52:30.165Z,79.14
2019-04-11T07:53:30.463Z,79.71
2019-04-11T07:54:30.697Z,79.90
2019-04-11T07:55:32.257Z,80.18
2019-04-11T07:56:33.446Z,79.80
2019-04-11T07:57:34.840Z,79.80
2019-04-11T07:58:37.334Z,79.71
2019-04-11T07:59:37.708Z,79.90
2019-04-11T08:00:44.086Z,80.27
2019-04-11T08:01:40.389Z,80.08
2019-04-11T08:02:41.680Z,79.80
2019-04-11T08:03:43.064Z,79.80
2019-04-11T08:04:45.126Z,80.18
2019-04-11T08:05:46.672Z,80.27
2019-04-11T08:06:47.884Z,80.56
2019-04-11T08:07:49.081Z,80.56
2019-04-11T08:08:49.862Z,80.56
2019-04-11T08:09:51.253Z,80.65
2019-04-11T08:10:52.679Z,80.46
2019-04-11T08:11:54.062Z,80.27
2019-04-11T08:12:56.154Z,80.56
2019-04-11T08:13:56.796Z,79.90
2019-04-11T08:14:59.262Z,80.08
2019-04-11T08:15:59.550Z,79.27
2019-04-11T08:17:01.560Z,79.27
2019-04-11T08:18:02.298Z,79.27
2019-04-11T08:19:03.706Z,78.51
2019-04-11T08:20:05.103Z,78.42
2019-04-11T08:21:06.462Z,78.08
2019-04-11T08:22:08.407Z,76.75
2019-04-11T08:23:09.717Z,75.99
2019-04-11T08:24:10.547Z,74.85
2019-04-11T08:25:11.945Z,73.93
2019-04-11T08:26:13.674Z,72.70
2019-04-11T08:27:15.509Z,71.22
2019-04-11T08:28:16.428Z,69.73
2019-04-11T08:29:18.003Z,68.43
2019-04-11T08:30:19.040Z,65.77
2019-04-11T08:31:20.134Z,61.25
2019-04-11T08:32:22.038Z,56.76
2019-04-11T08:33:22.881Z,52.67
2019-04-11T08:34:24.284Z,49.48
2019-04-11T08:35:26.253Z,47.97
2019-04-11T08:36:27.035Z,45.98
2019-04-11T08:37:29.599Z,43.39
2019-04-11T08:38:29.801Z,43.20
2019-04-11T08:39:31.280Z,42.80
2019-04-11T08:40:33.626Z,42.01
2019-04-11T08:41:34.002Z,42.20
2019-04-11T08:42:37.286Z,44.00
2019-04-11T08:43:37.453Z,44.93
2019-04-11T08:44:38.187Z,45.20
2019-04-11T08:45:40.282Z,45.48
2019-04-11T08:46:40.941Z,46.32
2019-04-11T08:47:47.607Z,47.16
2019-04-11T08:48:44.112Z,48.85
2019-04-11T08:49:45.842Z,49.78
2019-04-11T08:50:46.988Z,50.26
2019-04-11T08:51:47.790Z,50.80
2019-04-11T08:52:49.180Z,52.11
2019-04-11T08:53:51.120Z,53.42
2019-04-11T08:54:51.950Z,54.75
2019-04-11T08:55:56.239Z,55.20
2019-04-11T08:56:55.725Z,55.87
2019-04-11T08:57:56.118Z,56.53
2019-04-11T08:58:57.405Z,56.82
2019-04-11T08:59:59.941Z,56.37
2019-04-11T09:01:00.669Z,56.46
2019-04-11T09:02:02.685Z,56.49
2019-04-11T09:03:02.918Z,55.83
2019-04-11T09:04:07.401Z,54.90
2019-04-11T09:05:12.054Z,52.73
2019-04-11T09:06:08.306Z,50.69
2019-04-11T09:07:10.184Z,49.21
2019-04-11T09:08:09.995Z,47.42
2019-04-11T09:09:11.241Z,46.30
2019-04-11T09:10:12.627Z,44.40
2019-04-11T09:11:14.829Z,42.53
2019-04-11T09:12:15.353Z,41.69
2019-04-11T09:13:17.309Z,39.03
2019-04-11T09:14:18.113Z,38.26
2019-04-11T09:15:19.525Z,37.34
2019-04-11T09:16:21.587Z,36.49
2019-04-11T09:17:23.249Z,35.16
2019-04-11T09:18:23.888Z,33.91
2019-04-11T09:19:25.106Z,32.06
2019-04-11T09:20:27.546Z,32.15
2019-04-11T09:21:28.533Z,32.82
2019-04-11T09:22:29.180Z,33.13
2019-04-11T09:23:30.529Z,31.49
2019-04-11T09:24:32.542Z,30.46
2019-04-11T09:25:33.304Z,28.92
2019-04-11T09:26:34.701Z,28.82
2019-04-11T09:27:36.504Z,29.17
2019-04-11T09:28:37.710Z,30.22
2019-04-11T09:29:39.873Z,31.24
2019-04-11T09:30:41.091Z,33.43
2019-04-11T09:31:41.958Z,34.58
2019-04-11T09:32:42.959Z,35.33
2019-04-11T09:33:44.923Z,36.08
2019-04-11T09:34:46.048Z,36.54
2019-04-11T09:35:47.154Z,37.19
2019-04-11T09:36:49.244Z,37.95
2019-04-11T09:37:49.804Z,38.89
2019-04-11T09:38:51.194Z,40.37
2019-04-11T09:39:53.106Z,41.43
2019-04-11T09:40:54.224Z,42.67
2019-04-11T09:41:56.540Z,42.67
2019-04-11T09:42:57.583Z,42.96
2019-04-11T09:43:58.123Z,43.05
2019-04-11T09:44:59.470Z,42.93
2019-04-11T09:46:01.818Z,43.49
2019-04-11T09:47:03.328Z,43.77
2019-04-11T09:48:12.609Z,44.15
2019-04-11T09:49:04.890Z,44.53
2019-04-11T09:50:06.289Z,44.15
2019-04-11T09:51:07.679Z,43.87
2019-04-11T09:52:09.111Z,44.44
2019-04-11T09:53:10.510Z,45.39
2019-04-11T09:54:12.074Z,45.87
2019-04-11T09:55:13.326Z,46.15
2019-04-11T09:56:15.182Z,46.82
2019-04-11T09:57:16.404Z,47.11
2019-04-11T09:58:17.558Z,46.89
2019-04-11T09:59:18.954Z,48.04
2019-04-11T10:00:20.700Z,47.73
2019-04-11T10:01:21.713Z,48.02
2019-04-11T10:02:23.344Z,48.87
2019-04-11T10:03:25.560Z,49.42
2019-04-11T10:04:25.833Z,49.80
2019-04-11T10:05:27.235Z,50.46
2019-04-11T10:06:28.626Z,50.66
2019-04-11T10:07:30.116Z,51.23
2019-04-11T10:08:31.372Z,51.32
2019-04-11T10:09:32.778Z,50.94
2019-04-11T10:10:35.260Z,51.32
2019-04-11T10:11:35.535Z,51.51
2019-04-11T10:12:38.198Z,51.97
2019-04-11T10:13:38.299Z,52.34
2019-04-11T10:14:39.806Z,52.72
2019-04-11T10:15:41.044Z,53.17
2019-04-11T10:16:42.451Z,53.08
2019-04-11T10:17:43.857Z,53.27
2019-04-11T10:18:45.258Z,54.13
2019-04-11T10:19:46.643Z,54.79
2019-04-11T10:20:48.692Z,55.08
2019-04-11T10:21:49.959Z,55.17
2019-04-11T10:22:50.745Z,54.41
2019-04-11T10:23:53.289Z,54.69
2019-04-11T10:24:54.544Z,54.69
2019-04-11T10:25:55.925Z,55.08
2019-04-11T10:26:56.322Z,55.36
2019-04-11T10:27:57.560Z,55.83
2019-04-11T10:29:00.166Z,56.31
2019-04-11T10:30:00.879Z,55.83
2019-04-11T10:31:02.133Z,55.55
2019-04-11T10:32:03.283Z,55.65
2019-04-11T10:33:04.536Z,55.74
2019-04-11T10:34:06.112Z,55.55
2019-04-11T10:35:08.188Z,55.93
2019-04-11T10:36:08.435Z,56.51
2019-04-11T10:37:09.840Z,55.65
2019-04-11T10:38:11.944Z,56.00
2019-04-11T10:39:13.208Z,56.98
2019-04-11T10:40:13.946Z,56.79
2019-04-11T10:41:15.339Z,56.22
2019-04-11T10:42:18.017Z,55.87
2019-04-11T10:43:18.258Z,54.44
2019-04-11T10:44:19.445Z,54.08
2019-04-11T10:45:20.851Z,54.21
2019-04-11T10:46:22.940Z,52.68
2019-04-11T10:47:24.921Z,50.30
2019-04-11T10:48:35.590Z,50.49
2019-04-11T10:49:26.357Z,49.82
2019-04-11T10:50:28.383Z,49.90
2019-04-11T10:51:29.569Z,50.18
2019-04-11T10:52:30.831Z,50.46
2019-04-11T10:53:31.812Z,50.06
2019-04-11T10:54:33.200Z,50.54
2019-04-11T10:55:35.699Z,50.63
2019-04-11T10:56:35.946Z,52.25
2019-04-11T10:57:38.257Z,52.61
2019-04-11T10:58:38.689Z,52.70
2019-04-11T10:59:40.703Z,54.22
2019-04-11T11:00:41.440Z,55.17
2019-04-11T11:01:42.832Z,56.00
2019-04-11T11:02:45.290Z,57.62
2019-04-11T11:03:45.597Z,58.76
2019-04-11T11:04:46.988Z,60.28
2019-04-11T11:05:49.303Z,60.18
2019-04-11T11:06:49.730Z,61.39
2019-04-11T11:07:51.133Z,61.68
2019-04-11T11:08:53.400Z,62.15
2019-04-11T11:09:54.569Z,62.15
2019-04-11T11:10:55.570Z,62.15
2019-04-11T11:11:56.804Z,61.87
2019-04-11T11:12:59.186Z,62.05
2019-04-11T11:14:00.405Z,61.01
2019-04-11T11:15:00.947Z,61.48
2019-04-11T11:16:02.327Z,61.29
2019-04-11T11:17:04.450Z,61.39
2019-04-11T11:18:34.954Z,61.29
2019-04-11T11:19:32.220Z,61.87
2019-04-11T11:20:16.389Z,62.05
2019-04-11T11:21:09.453Z,61.68
2019-04-11T11:22:10.679Z,61.10
2019-04-11T11:23:13.051Z,61.20
2019-04-11T11:24:13.444Z,60.53
2019-04-11T11:25:16.759Z,59.77
2019-04-11T11:26:19.872Z,59.87
2019-04-11T11:27:18.112Z,58.73
2019-04-11T11:28:18.909Z,59.11
2019-04-11T11:29:21.189Z,57.87
2019-04-11T11:30:23.082Z,57.21
2019-04-11T11:31:24.427Z,56.54
2019-04-11T11:32:25.365Z,56.92
2019-04-11T11:33:26.655Z,56.83
2019-04-11T11:34:28.430Z,56.54
2019-04-11T11:35:32.343Z,57.21
2019-04-11T11:36:34.956Z,56.45
2019-04-11T11:37:33.253Z,55.11
2019-04-11T11:38:33.666Z,55.24
2019-04-11T11:39:35.259Z,55.50
2019-04-11T11:40:38.523Z,55.50
2019-04-11T11:41:38.545Z,55.69
2019-04-11T11:42:38.879Z,55.78
2019-04-11T11:43:41.261Z,55.88
2019-04-11T11:44:41.641Z,56.35
2019-04-11T11:45:47.940Z,57.02
2019-04-11T11:46:44.634Z,57.02
2019-04-11T11:47:45.961Z,56.07
2019-04-11T11:48:49.977Z,56.35
2019-04-11T11:49:56.524Z,56.29
2019-04-11T11:50:51.365Z,56.54
2019-04-11T11:51:51.862Z,56.29
2019-04-11T11:52:53.135Z,55.52
2019-04-11T11:53:53.896Z,54.38
2019-04-11T11:54:55.720Z,55.05
2019-04-11T11:55:57.836Z,55.15
2019-04-11T11:56:58.226Z,55.52
2019-04-11T11:58:00.465Z,55.74
2019-04-11T11:59:01.095Z,54.98
2019-04-11T12:00:02.885Z,55.27
2019-04-11T12:01:05.875Z,55.17
2019-04-11T12:02:04.797Z,55.29
2019-04-11T12:03:06.182Z,55.20
2019-04-11T12:04:08.584Z,54.82
2019-04-11T12:05:12.542Z,54.82
2019-04-11T12:06:10.305Z,54.53
2019-04-11T12:07:12.610Z,54.53
2019-04-11T12:08:16.131Z,53.77
2019-04-11T12:09:14.428Z,53.77
2019-04-11T12:10:15.831Z,54.41
2019-04-11T12:11:17.819Z,54.50
2019-04-11T12:12:19.738Z,54.79
2019-04-11T12:13:19.927Z,54.89
2019-04-11T12:14:22.158Z,55.17
2019-04-11T12:15:25.291Z,55.05
2019-04-11T12:16:24.028Z,56.00
2019-04-11T12:17:25.427Z,56.95
2019-04-11T12:18:26.856Z,57.71
2019-04-11T12:19:28.893Z,58.57
2019-04-11T12:20:29.582Z,59.20
2019-04-11T12:21:31.458Z,60.16
2019-04-11T12:22:32.733Z,60.16
2019-04-11T12:23:44.779Z,60.16
2019-04-11T12:24:36.396Z,60.82
2019-04-11T12:25:36.979Z,61.20
2019-04-11T12:26:37.877Z,61.58
2019-04-11T12:27:40.043Z,61.58
2019-04-11T12:28:41.504Z,61.20
2019-04-11T12:29:46.389Z,61.96
2019-04-11T12:30:43.981Z,62.53
2019-04-11T12:31:44.551Z,63.39
2019-04-11T12:32:46.433Z,63.35
2019-04-11T12:33:47.900Z,63.20
2019-04-11T12:34:49.329Z,63.35
2019-04-11T12:35:50.672Z,63.35
2019-04-11T12:36:52.956Z,62.02
2019-04-11T12:37:53.337Z,62.02
2019-04-11T12:38:54.884Z,62.31
2019-04-11T12:39:55.427Z,62.02
2019-04-11T12:40:56.815Z,61.93
2019-04-11T12:41:58.219Z,62.69
2019-04-11T12:42:59.611Z,62.88
2019-04-11T12:44:01.047Z,62.69
2019-04-11T12:45:02.433Z,63.64
2019-04-11T12:46:03.823Z,63.17
2019-04-11T12:47:07.582Z,63.45
2019-04-11T12:48:06.562Z,63.64
2019-04-11T12:49:07.952Z,63.83
2019-04-11T12:50:09.342Z,63.45
2019-04-11T12:51:10.730Z,64.30
2019-04-11T12:52:12.122Z,65.44
2019-04-11T12:53:13.510Z,66.01
2019-04-11T12:54:14.911Z,66.96
2019-04-11T12:55:16.306Z,66.58
2019-04-11T12:56:17.704Z,67.06
2019-04-11T12:57:19.103Z,67.15
2019-04-11T12:58:20.494Z,67.34
2019-04-11T12:59:21.894Z,67.63
2019-04-11T13:00:23.285Z,67.72
2019-04-11T13:01:24.684Z,67.44
2019-04-11T13:02:26.071Z,68.29
2019-04-11T13:03:27.464Z,68.67
2019-04-11T13:04:28.851Z,68.86
2019-04-11T13:05:30.237Z,68.96
2019-04-11T13:06:35.657Z,69.34
2019-04-11T13:07:33.078Z,69.49
2019-04-11T13:08:34.333Z,69.43
2019-04-11T13:09:35.729Z,69.02
2019-04-11T13:10:37.118Z,69.40
2019-04-11T13:11:38.507Z,69.34
2019-04-11T13:12:39.893Z,69.15
2019-04-11T13:13:41.280Z,69.68
2019-04-11T13:14:42.674Z,69.53